Time;durP1;ratioP1;P1;durP2;ratioP2;P2;SDS_P1;SDS_P2;PMS_P1;PMS_P2;Temp;Humidity;BMP_temperature;BMP_pressure;BME280_temperature;BME280_humidity;BME280_pressure;Samples;Min_cycle;Max_cycle;Signal;HPM_P1;HPM_P2
2021/04/12 00:01:11;;;;;;;0.40;0.40;;;;;;;14.01;46.19;94066.56;4964090;28;20049;-54
2021/04/12 00:04:19;;;;;;;0.45;0.38;;;;;;;14.02;46.11;94065.56;4963344;28;20054;-54
2021/04/12 00:06:48;;;;;;;0.40;0.40;;;;;;;14.01;46.43;94069.19;4944495;29;20047;-54
2021/04/12 00:09:21;;;;;;;0.38;0.38;;;;;;;14.02;46.13;94073.47;4941087;29;20197;-54
2021/04/12 00:11:48;;;;;;;0.20;0.20;;;;;;;14.02;46.57;94070.03;4967614;28;20039;-54
2021/04/12 00:14:46;;;;;;;0.20;0.20;;;;;;;14.02;46.24;94073.47;4998605;28;20037;-53
2021/04/12 00:17:41;;;;;;;0.22;0.22;;;;;;;14.03;46.27;94074.25;4979227;28;20085;-54
2021/04/12 00:20:11;;;;;;;0.20;0.20;;;;;;;14.02;46.17;94077.94;4994366;28;20104;-52
2021/04/12 00:23:22;;;;;;;1.15;0.30;;;;;;;14.03;46.29;94092.69;4975890;28;20041;-54
2021/04/12 00:26:14;;;;;;;0.20;0.20;;;;;;;14.02;46.14;94098.97;4947077;29;20063;-53
2021/04/12 00:29:33;;;;;;;0.20;0.20;;;;;;;14.03;46.27;94113.72;4935673;28;20043;-54
2021/04/12 00:32:04;;;;;;;0.22;0.22;;;;;;;14.02;46.22;94118.19;4888009;29;20029;-52
2021/04/12 00:34:41;;;;;;;0.20;0.20;;;;;;;14.02;46.05;94109.50;4864690;29;20033;-53
2021/04/12 00:37:34;;;;;;;0.30;0.30;;;;;;;14.04;46.34;94119.81;4855171;29;20068;-54
2021/04/12 00:40:38;;;;;;;0.22;0.22;;;;;;;14.01;46.32;94132.34;4863120;29;20033;-54
2021/04/12 00:43:08;;;;;;;0.73;0.40;;;;;;;14.02;46.06;94125.28;4895919;29;20037;-54
2021/04/12 00:45:58;;;;;;;0.40;0.40;;;;;;;14.02;46.14;94138.44;4883197;29;20079;-54
2021/04/12 00:48:48;;;;;;;0.15;0.15;;;;;;;14.01;46.17;94127.06;4898387;29;20100;-54
2021/04/12 00:51:43;;;;;;;0.20;0.20;;;;;;;14.02;46.13;94144.50;4899319;29;20028;-54
2021/04/12 00:54:46;;;;;;;0.57;0.57;;;;;;;14.02;46.36;94147.13;4883108;29;20028;-54
2021/04/12 01:00:54;;;;;;;0.22;0.22;;;;;;;14.02;46.15;94155.03;4880135;29;20040;-54
2021/04/12 01:03:59;;;;;;;0.20;0.20;;;;;;;14.01;46.21;94161.28;4937917;28;20034;-54
2021/04/12 01:07:01;;;;;;;0.40;0.40;;;;;;;14.02;46.51;94162.91;4974121;28;20367;-54
2021/04/12 01:10:01;;;;;;;0.32;0.20;;;;;;;14.02;46.13;94165.53;4993972;28;20051;-54
2021/04/12 01:12:48;;;;;;;0.28;0.28;;;;;;;14.02;46.60;94162.91;4962798;28;20093;-54
2021/04/12 01:15:22;;;;;;;0.35;0.35;;;;;;;14.01;46.36;94171.81;4978184;28;20069;-54
2021/04/12 01:18:26;;;;;;;0.55;0.30;;;;;;;14.02;46.17;94165.53;4977460;28;20034;-54
2021/04/12 01:21:29;;;;;;;0.20;0.20;;;;;;;14.02;46.34;94168.16;4979423;28;20019;-54
2021/04/12 01:24:42;;;;;;;0.22;0.22;;;;;;;14.02;46.00;94168.16;4973272;28;20185;-54
2021/04/12 01:27:33;;;;;;;1.92;0.50;;;;;;;14.02;46.50;94170.00;4953048;28;20027;-54
2021/04/12 01:30:37;;;;;;;0.20;0.20;;;;;;;14.01;46.12;94174.44;4952060;28;20043;-54
2021/04/12 01:33:41;;;;;;;0.20;0.20;;;;;;;14.01;46.15;94182.31;4945074;29;20035;-54
2021/04/12 01:36:33;;;;;;;0.30;0.30;;;;;;;14.03;45.99;94184.75;4939512;29;20042;-53
2021/04/12 01:39:30;;;;;;;0.30;0.30;;;;;;;14.02;46.08;94191.03;4997005;28;20022;-54
2021/04/12 01:42:18;;;;;;;0.22;0.22;;;;;;;14.02;46.12;94194.47;5013244;28;20029;-53
2021/04/12 01:45:02;;;;;;;0.30;0.30;;;;;;;14.02;46.46;94206.84;5013534;28;20042;-54
2021/04/12 01:47:55;;;;;;;0.22;0.22;;;;;;;14.02;46.12;94212.91;4996819;28;20052;-53
2021/04/12 01:50:28;;;;;;;0.22;0.22;;;;;;;14.02;46.10;94212.09;5013299;28;20294;-54
2021/04/12 01:53:11;;;;;;;0.43;0.20;;;;;;;14.02;46.39;94222.63;4983958;28;20121;-54
2021/04/12 01:55:52;;;;;;;0.30;0.30;;;;;;;14.02;45.99;94231.31;4996914;28;20045;-54
2021/04/12 01:58:30;;;;;;;0.20;0.20;;;;;;;14.02;46.26;94231.31;4996248;28;20707;-54
2021/04/12 02:00:55;;;;;;;0.20;0.20;;;;;;;14.02;46.27;94228.69;5012412;28;20117;-54
2021/04/12 02:03:40;;;;;;;0.10;0.10;;;;;;;14.02;46.26;94231.31;5034670;28;20124;-51
2021/04/12 02:06:08;;;;;;;0.35;0.32;;;;;;;14.02;46.27;94239.19;5028013;28;20112;-54
2021/04/12 02:08:55;;;;;;;0.30;0.30;;;;;;;14.02;46.38;94244.47;5048390;28;20075;-52
2021/04/12 02:11:33;;;;;;;0.30;0.30;;;;;;;14.03;46.47;94250.53;5033498;28;20029;-54
2021/04/12 02:14:35;;;;;;;0.30;0.30;;;;;;;14.02;46.26;94257.63;5050557;28;20029;-51
2021/04/12 02:17:24;;;;;;;0.47;0.30;;;;;;;14.02;46.33;94265.50;5003902;28;20030;-54
2021/04/12 02:20:33;;;;;;;0.20;0.20;;;;;;;14.02;46.35;94268.13;5012300;28;20026;-54
2021/04/12 02:23:27;;;;;;;0.20;0.20;;;;;;;14.01;46.35;94274.41;5000245;28;20050;-54
2021/04/12 02:25:58;;;;;;;0.20;0.20;;;;;;;14.02;46.44;94277.88;5012305;28;20494;-53
2021/04/12 02:29:13;;;;;;;0.20;0.20;;;;;;;14.02;46.21;94277.88;5011668;28;20025;-54
2021/04/12 02:32:06;;;;;;;0.40;0.25;;;;;;;14.02;46.47;94264.72;5012369;28;20121;-55
2021/04/12 02:34:59;;;;;;;0.30;0.30;;;;;;;14.02;46.11;94264.72;4996639;28;20141;-54
2021/04/12 02:38:09;;;;;;;0.17;0.17;;;;;;;14.02;46.57;94276.03;5009159;28;20078;-52
2021/04/12 02:40:54;;;;;;;0.20;0.20;;;;;;;14.02;46.32;94281.28;4957409;28;20121;-54
2021/04/12 02:44:03;;;;;;;0.28;0.20;;;;;;;14.02;46.39;94291.03;4938287;29;20194;-54
2021/04/12 02:46:53;;;;;;;;;;;;;;;14.02;46.10;94297.09;4955024;28;20446;-53
2021/04/12 02:49:31;;;;;;;0.25;0.20;;;;;;;14.02;46.24;94307.59;4954715;28;19938;-54
2021/04/12 02:52:12;;;;;;;0.30;0.30;;;;;;;14.04;46.48;94319.75;4956197;28;20035;-54
2021/04/12 02:55:07;;;;;;;0.13;0.13;;;;;;;14.02;46.08;94325.22;4957278;28;20030;-54
2021/04/12 02:58:10;;;;;;;0.30;0.30;;;;;;;14.02;46.13;94325.22;4972608;28;20046;-54
2021/04/12 03:01:15;;;;;;;0.28;0.20;;;;;;;14.03;46.19;94337.34;4972677;28;20029;-52
2021/04/12 03:03:45;;;;;;;0.20;0.20;;;;;;;14.02;46.17;94327.84;4956891;28;20050;-54
2021/04/12 03:06:29;;;;;;;0.20;0.20;;;;;;;14.02;46.04;94333.91;4972651;28;20023;-54
2021/04/12 03:09:22;;;;;;;0.28;0.28;;;;;;;14.02;46.42;94333.91;4955441;28;20042;-54
2021/04/12 03:12:11;;;;;;;0.30;0.30;;;;;;;14.03;46.17;94342.59;4954342;28;20027;-53
2021/04/12 03:14:55;;;;;;;0.20;0.20;;;;;;;14.02;46.12;94347.06;4970871;28;20050;-54
2021/04/12 03:17:39;;;;;;;0.20;0.20;;;;;;;14.04;46.43;94353.97;5044427;28;20042;-53
2021/04/12 03:20:11;;;;;;;0.28;0.28;;;;;;;14.04;46.40;94361.84;5043225;28;20087;-54
2021/04/12 03:22:52;;;;;;;0.45;0.20;;;;;;;14.04;46.60;94367.13;5025745;28;20041;-54
2021/04/12 03:25:20;;;;;;;0.30;0.30;;;;;;;14.03;46.38;94366.28;5028326;28;20029;-54
2021/04/12 03:27:48;;;;;;;0.20;0.20;;;;;;;14.04;46.20;94369.75;5029379;28;20180;-50
2021/04/12 03:30:20;;;;;;;0.20;0.20;;;;;;;14.02;46.20;94370.75;5027374;28;21291;-54
2021/04/12 03:33:10;;;;;;;0.20;0.20;;;;;;;14.04;46.29;94369.75;5023736;28;20112;-53
2021/04/12 03:36:09;;;;;;;0.20;0.20;;;;;;;14.02;46.15;94376.00;5012395;28;20049;-54
2021/04/12 03:38:42;;;;;;;0.20;0.20;;;;;;;14.02;46.36;94381.28;5028503;28;20113;-54
2021/04/12 03:41:13;;;;;;;0.10;0.10;;;;;;;14.03;46.35;94387.34;5012171;28;20068;-53
2021/04/12 03:44:06;;;;;;;0.30;0.30;;;;;;;14.02;46.04;94389.16;5028691;28;20033;-54
2021/04/12 03:46:58;;;;;;;0.17;0.17;;;;;;;14.03;46.23;94400.50;5020007;28;20026;-53
2021/04/12 03:49:27;;;;;;;0.20;0.20;;;;;;;14.03;46.55;94395.22;5011752;28;20030;-54
2021/04/12 03:52:25;;;;;;;0.30;0.30;;;;;;;14.03;46.35;94405.75;5010956;28;20111;-54
2021/04/12 03:55:19;;;;;;;0.22;0.22;;;;;;;14.04;46.13;94414.47;5030534;28;20056;-53
2021/04/12 03:57:54;;;;;;;0.95;0.40;;;;;;;14.03;46.60;94418.91;5011705;28;20121;-54
2021/04/12 04:00:32;;;;;;;0.28;0.28;;;;;;;14.02;45.98;94427.81;5014363;28;20041;-54
2021/04/12 04:03:28;;;;;;;0.20;0.20;;;;;;;14.03;46.46;94432.06;5031766;28;20033;-54
2021/04/12 04:06:20;;;;;;;0.20;0.20;;;;;;;14.02;46.40;94427.81;4997609;28;20021;-54
2021/04/12 04:09:00;;;;;;;0.32;0.30;;;;;;;14.03;46.21;94429.44;5031280;28;20033;-53
2021/04/12 04:11:25;;;;;;;0.20;0.20;;;;;;;14.02;46.53;94427.81;5026820;28;20037;-53
2021/04/12 04:14:18;;;;;;;0.20;0.20;;;;;;;14.03;46.14;94424.16;5014340;28;20362;-54
2021/04/12 04:17:00;;;;;;;0.25;0.25;;;;;;;14.03;46.33;94445.22;5011239;28;20022;-53
2021/04/12 04:19:46;;;;;;;0.20;0.20;;;;;;;14.02;46.12;94436.53;5012163;28;20330;-53
2021/04/12 04:22:21;;;;;;;0.20;0.20;;;;;;;14.02;46.12;94435.72;5018303;28;20042;-54
2021/04/12 04:25:00;;;;;;;0.40;0.40;;;;;;;14.02;46.65;94435.72;5041452;28;20128;-53
2021/04/12 04:27:41;;;;;;;0.20;0.20;;;;;;;14.02;46.33;94441.78;5012248;28;20026;-54
2021/04/12 04:30:28;;;;;;;0.20;0.20;;;;;;;14.02;46.22;94452.31;5015209;28;20092;-53
2021/04/12 04:33:16;;;;;;;0.20;0.20;;;;;;;14.02;46.41;94459.41;5030043;28;20037;-54
2021/04/12 04:36:21;;;;;;;0.30;0.30;;;;;;;14.02;46.14;94464.66;5015896;28;20022;-54
2021/04/12 04:39:23;;;;;;;0.20;0.20;;;;;;;14.01;46.39;94471.72;5028136;28;20124;-54
2021/04/12 04:42:31;;;;;;;0.20;0.20;;;;;;;14.02;46.21;94485.69;5039583;28;20014;-54
2021/04/12 04:45:07;;;;;;;0.28;0.28;;;;;;;14.01;46.43;94487.50;5052108;28;20037;-54
2021/04/12 04:47:47;;;;;;;0.20;0.20;;;;;;;14.02;46.20;94490.97;5028271;28;20061;-54
2021/04/12 04:50:35;;;;;;;0.20;0.20;;;;;;;14.02;46.34;94501.50;5015672;28;20065;-54
2021/04/12 04:53:31;;;;;;;0.20;0.20;;;;;;;14.02;46.07;94497.03;5039036;28;20067;-54
2021/04/12 04:56:19;;;;;;;0.20;0.20;;;;;;;14.02;46.04;94504.94;5027942;28;20361;-53
2021/04/12 04:59:03;;;;;;;0.20;0.20;;;;;;;14.02;46.27;94506.75;5030808;28;20080;-54
2021/04/12 05:01:52;;;;;;;0.30;0.30;;;;;;;14.02;46.15;94510.19;5027078;28;20463;-53
2021/04/12 05:04:56;;;;;;;0.20;0.20;;;;;;;14.01;46.49;94521.69;5033874;28;20026;-53
2021/04/12 05:08:02;;;;;;;0.32;0.32;;;;;;;14.02;46.05;94527.81;5034833;28;20087;-53
2021/04/12 05:10:40;;;;;;;0.20;0.20;;;;;;;14.02;46.36;94527.81;5033980;28;20037;-54
2021/04/12 05:13:07;;;;;;;0.20;0.20;;;;;;;14.02;46.25;94535.69;5028081;28;20559;-53
2021/04/12 05:16:08;;;;;;;0.20;0.20;;;;;;;14.01;46.17;94540.13;5013930;28;20033;-52
2021/04/12 05:18:59;;;;;;;0.20;0.20;;;;;;;14.02;46.51;94539.13;5014282;28;20112;-53
2021/04/12 05:22:02;;;;;;;0.20;0.20;;;;;;;14.01;46.43;94550.66;5037886;28;20393;-51
2021/04/12 05:24:44;;;;;;;0.20;0.20;;;;;;;14.01;46.47;94553.28;5033132;28;20106;-51
2021/04/12 05:27:47;;;;;;;0.20;0.20;;;;;;;14.01;46.09;94565.63;5016262;28;20030;-53
2021/04/12 05:30:26;;;;;;;4.03;0.32;;;;;;;14.05;46.68;94573.94;5016425;28;20036;-51
2021/04/12 05:33:12;;;;;;;0.20;0.20;;;;;;;14.05;46.25;94576.59;5013485;28;20029;-53
2021/04/12 05:35:53;;;;;;;0.57;0.20;;;;;;;14.04;46.16;94577.59;5021006;28;20025;-51
2021/04/12 05:38:52;;;;;;;0.20;0.20;;;;;;;14.02;46.27;94589.13;5024868;28;20033;-52
2021/04/12 05:41:33;;;;;;;0.20;0.20;;;;;;;14.03;46.31;94595.19;5039766;28;20033;-52
2021/04/12 05:44:36;;;;;;;0.10;0.10;;;;;;;14.03;46.25;94597.81;5035518;28;20029;-52
2021/04/12 05:47:15;;;;;;;1.10;0.30;;;;;;;14.02;46.44;94604.09;5031626;28;20060;-50
2021/04/12 05:50:04;;;;;;;0.20;0.20;;;;;;;14.01;46.65;94605.91;5034026;28;20075;-50
2021/04/12 05:52:46;;;;;;;0.10;0.10;;;;;;;14.01;46.35;94605.91;5011936;28;20091;-53
2021/04/12 05:55:41;;;;;;;0.47;0.30;;;;;;;14.02;46.58;94614.63;5020238;28;20033;-52
2021/04/12 05:58:37;;;;;;;0.20;0.20;;;;;;;14.02;46.06;94617.25;5035177;28;20418;-50
2021/04/12 06:01:33;;;;;;;0.10;0.10;;;;;;;14.02;46.62;94622.50;5020706;28;20033;-53
2021/04/12 06:04:27;;;;;;;0.20;0.20;;;;;;;14.02;46.56;94627.78;5047846;28;20064;-52
2021/04/12 06:07:18;;;;;;;0.20;0.15;;;;;;;14.02;46.53;94630.41;5047488;28;20024;-51
2021/04/12 06:10:27;;;;;;;0.28;0.28;;;;;;;14.02;46.68;94633.03;5038566;28;20036;-53
2021/04/12 06:13:06;;;;;;;;;;;;;;;14.02;46.29;94635.66;5034505;28;20025;-52
2021/04/12 06:15:56;;;;;;;0.20;0.20;;;;;;;14.02;46.48;94643.56;5012387;28;19923;-52
2021/04/12 06:19:00;;;;;;;0.20;0.20;;;;;;;14.02;46.21;94643.56;5035673;28;20086;-51
2021/04/12 06:21:35;;;;;;;0.20;0.20;;;;;;;14.02;46.29;94648.81;5034703;28;20021;-53
2021/04/12 06:24:38;;;;;;;0.20;0.20;;;;;;;14.02;46.54;94649.63;5035198;28;20175;-52
2021/04/12 06:27:28;;;;;;;0.10;0.10;;;;;;;14.01;46.27;94661.16;5008058;28;20041;-50
2021/04/12 06:30:30;;;;;;;0.22;0.22;;;;;;;14.02;46.20;94659.34;5007290;28;20064;-52
2021/04/12 06:33:37;;;;;;;0.10;0.10;;;;;;;14.02;46.40;94660.16;4981795;28;20284;-53
2021/04/12 06:36:16;;;;;;;0.30;0.20;;;;;;;14.02;46.26;94660.16;4984893;28;20053;-50
2021/04/12 06:39:10;;;;;;;0.30;0.30;;;;;;;14.01;46.55;94661.16;4956263;28;20033;-51
2021/04/12 06:41:46;;;;;;;0.20;0.20;;;;;;;14.02;46.14;94669.88;4987012;28;20030;-49
2021/04/12 06:44:44;;;;;;;0.10;0.10;;;;;;;14.01;46.61;94666.41;4971956;28;20478;-53
2021/04/12 06:47:10;;;;;;;0.20;0.20;;;;;;;14.02;46.24;94669.88;4975529;28;20030;-49
2021/04/12 06:50:09;;;;;;;0.28;0.28;;;;;;;14.02;46.29;94675.94;4973813;28;20675;-53
2021/04/12 06:52:55;;;;;;;0.20;0.20;;;;;;;14.02;46.13;94675.13;4989218;28;20084;-51
2021/04/12 06:55:55;;;;;;;0.20;0.20;;;;;;;14.02;46.42;94680.41;4990372;28;20081;-52
2021/04/12 06:58:57;;;;;;;0.22;0.22;;;;;;;14.01;46.17;94684.81;4974622;28;20042;-53
2021/04/12 07:01:45;;;;;;;0.20;0.20;;;;;;;14.02;46.46;94691.72;4983307;28;20252;-53
2021/04/12 07:04:33;;;;;;;0.98;0.20;;;;;;;14.02;46.67;94699.63;5046129;28;20033;-53
2021/04/12 07:07:55;;;;;;;0.20;0.20;;;;;;;14.01;46.62;94700.63;5014520;28;20086;-54
2021/04/12 07:10:23;;;;;;;0.17;0.17;;;;;;;14.01;46.19;94708.50;5029163;28;20029;-50
2021/04/12 07:13:12;;;;;;;0.20;0.20;;;;;;;14.01;46.41;94705.88;5016778;28;20056;-52
2021/04/12 07:16:11;;;;;;;0.20;0.20;;;;;;;14.01;46.33;94712.97;5030033;28;20034;-54
2021/04/12 07:18:45;;;;;;;0.15;0.15;;;;;;;14.01;46.53;94711.13;5026998;28;20041;-54
2021/04/12 07:21:48;;;;;;;1.40;0.30;;;;;;;14.01;46.54;94719.03;5029350;28;20029;-51
2021/04/12 07:24:50;;;;;;;0.20;0.20;;;;;;;14.02;46.57;94717.22;5008026;28;20160;-52
2021/04/12 07:27:45;;;;;;;0.30;0.30;;;;;;;14.01;46.57;94724.28;5013988;28;20042;-51
2021/04/12 07:30:57;;;;;;;0.20;0.20;;;;;;;14.01;46.30;94726.13;5009203;28;20112;-53
2021/04/12 07:33:34;;;;;;;0.10;0.10;;;;;;;14.01;46.20;94729.56;5027872;28;20388;-51
2021/04/12 07:36:11;;;;;;;0.20;0.20;;;;;;;14.01;46.16;94731.38;4995536;28;20120;-53
2021/04/12 07:39:14;;;;;;;0.20;0.20;;;;;;;14.01;46.65;94740.06;5012353;28;20046;-48
2021/04/12 07:41:57;;;;;;;0.30;0.30;;;;;;;14.01;46.69;94737.44;5028189;28;20145;-53
2021/04/12 07:45:01;;;;;;;0.25;0.25;;;;;;;14.01;46.29;94745.34;5014226;28;20037;-52
2021/04/12 07:47:44;;;;;;;0.32;0.32;;;;;;;14.00;46.18;94741.06;5031602;28;20032;-52
2021/04/12 07:50:25;;;;;;;0.20;0.20;;;;;;;14.02;46.11;94751.44;4999514;28;20508;-53
2021/04/12 07:53:23;;;;;;;0.10;0.10;;;;;;;14.02;46.25;94754.06;5026811;28;20048;-52
2021/04/12 07:56:31;;;;;;;0.30;0.30;;;;;;;14.01;46.30;94758.50;5043603;28;20052;-53
2021/04/12 07:59:29;;;;;;;0.20;0.20;;;;;;;14.02;46.26;94764.59;5007854;28;20026;-53
2021/04/12 08:02:29;;;;;;;0.10;0.10;;;;;;;14.02;46.20;94759.34;4934098;29;20094;-48
2021/04/12 08:05:31;;;;;;;0.20;0.20;;;;;;;14.02;46.50;94767.22;4931880;28;20627;-52
2021/04/12 08:08:22;;;;;;;0.20;0.20;;;;;;;14.00;46.55;94764.75;4936664;29;20046;-53
2021/04/12 08:11:06;;;;;;;0.20;0.20;;;;;;;14.00;46.15;94770.00;4941245;29;20023;-53
2021/04/12 08:13:35;;;;;;;0.45;0.30;;;;;;;14.01;46.49;94776.09;4934088;29;20043;-50
2021/04/12 08:16:22;;;;;;;0.20;0.20;;;;;;;14.01;46.41;94778.75;4903097;29;20181;-54
2021/04/12 08:19:13;;;;;;;0.20;0.20;;;;;;;14.01;46.55;94781.38;4936582;29;20177;-52
2021/04/12 08:22:10;;;;;;;0.20;0.20;;;;;;;14.01;46.43;94779.53;4928319;29;20050;-54
2021/04/12 08:24:58;;;;;;;0.10;0.10;;;;;;;14.01;46.61;94779.53;4857184;29;20165;-53
2021/04/12 08:27:36;;;;;;;0.20;0.20;;;;;;;14.01;46.49;94786.63;4861521;29;20037;-54
2021/04/12 08:30:45;;;;;;;0.30;0.30;;;;;;;14.00;46.65;94788.44;4860532;29;20045;-50
2021/04/12 08:33:48;;;;;;;0.25;0.25;;;;;;;14.01;46.57;94795.34;4872694;29;20041;-53
2021/04/12 08:36:55;;;;;;;0.28;0.28;;;;;;;14.02;46.69;94801.44;4879068;29;20093;-52
2021/04/12 08:40:03;;;;;;;0.10;0.10;;;;;;;14.01;46.51;94811.13;4934274;28;20094;-54
2021/04/12 08:42:56;;;;;;;0.20;0.20;;;;;;;14.01;46.37;94812.94;4962093;28;20070;-53
2021/04/12 08:45:58;;;;;;;0.28;0.28;;;;;;;14.02;46.36;94809.31;4948579;28;20416;-53
2021/04/12 08:49:16;;;;;;;0.15;0.15;;;;;;;14.02;46.32;94811.94;4950796;28;20030;-53
2021/04/12 08:52:10;;;;;;;0.20;0.20;;;;;;;14.05;46.29;94822.13;4887487;29;20048;-53
2021/04/12 08:55:23;;;;;;;0.10;0.10;;;;;;;14.05;46.17;94811.59;4903733;29;20032;-50
2021/04/12 08:58:20;;;;;;;0.20;0.20;;;;;;;14.04;46.23;94830.19;4845529;29;20048;-53
2021/04/12 09:01:19;;;;;;;0.65;0.20;;;;;;;14.02;46.75;94825.13;4867466;29;20040;-51
2021/04/12 09:03:58;;;;;;;;;;;;;;;14.02;46.17;94828.53;4915553;29;20028;-51
2021/04/12 09:06:44;;;;;;;0.30;0.20;;;;;;;14.02;46.36;94833.00;4882696;29;19979;-51
2021/04/12 09:09:31;;;;;;;0.22;0.22;;;;;;;14.01;46.63;94832.16;4910651;29;20036;-53
2021/04/12 09:12:05;;;;;;;0.68;0.20;;;;;;;14.02;46.67;94833.00;4885587;29;20476;-53
2021/04/12 09:15:10;;;;;;;0.30;0.30;;;;;;;14.02;46.49;94838.28;4927511;29;20036;-53
2021/04/12 09:17:50;;;;;;;0.22;0.22;;;;;;;14.02;46.61;94838.28;4896965;29;20803;-53
2021/04/12 09:20:37;;;;;;;0.20;0.20;;;;;;;14.01;46.86;94836.63;4904491;29;20148;-50
2021/04/12 09:23:44;;;;;;;0.10;0.10;;;;;;;14.02;46.33;94843.53;4890876;29;20041;-52
2021/04/12 09:26:53;;;;;;;0.40;0.40;;;;;;;14.01;46.47;94845.31;4882674;29;20338;-53
2021/04/12 09:30:02;;;;;;;0.20;0.20;;;;;;;14.02;46.22;94843.53;4911481;29;20024;-44
2021/04/12 09:32:27;;;;;;;;;;;;;;;14.01;46.49;94850.59;4906459;29;20023;-44
2021/04/12 09:35:09;;;;;;;0.30;0.30;;;;;;;14.02;46.68;94854.06;4979150;28;19914;-45
2021/04/12 09:38:22;;;;;;;0.65;0.30;;;;;;;14.02;46.56;94857.50;4969508;28;20039;-46
2021/04/12 09:41:28;;;;;;;0.30;0.30;;;;;;;14.01;46.53;94858.47;4990269;28;20042;-44
2021/04/12 09:44:13;;;;;;;0.20;0.20;;;;;;;14.02;46.22;94862.75;4976203;28;20080;-44
2021/04/12 09:47:00;;;;;;;0.30;0.20;;;;;;;14.02;46.64;94864.56;4977148;28;20056;-44
2021/04/12 09:49:48;;;;;;;0.20;0.20;;;;;;;14.02;46.43;94859.31;4961104;28;20037;-45
2021/04/12 09:52:33;;;;;;;0.20;0.20;;;;;;;14.02;46.69;94857.50;4967145;28;20175;-44
2021/04/12 09:55:32;;;;;;;0.20;0.20;;;;;;;14.02;46.49;94862.75;4981156;28;20034;-45
2021/04/12 09:58:54;;;;;;;0.20;0.20;;;;;;;14.02;46.62;94862.75;4957858;28;20039;-46
2021/04/12 10:02:04;;;;;;;0.17;0.17;;;;;;;14.02;46.71;94865.38;4948934;28;20075;-44
2021/04/12 10:05:07;;;;;;;0.20;0.20;;;;;;;14.03;46.62;94868.81;4967252;28;20022;-44
2021/04/12 10:08:19;;;;;;;0.20;0.20;;;;;;;14.02;46.13;94868.03;4957113;28;20193;-45
2021/04/12 10:11:03;;;;;;;0.20;0.20;;;;;;;14.02;46.65;94875.91;4953412;28;20035;-43
2021/04/12 10:13:41;;;;;;;0.30;0.30;;;;;;;14.02;46.46;94873.28;4939582;29;20039;-44
2021/04/12 10:16:20;;;;;;;0.20;0.20;;;;;;;14.02;46.36;94873.28;4966200;28;20240;-47
2021/04/12 10:19:04;;;;;;;0.20;0.20;;;;;;;14.02;46.69;94873.28;4940837;28;20038;-47
2021/04/12 10:21:55;;;;;;;0.20;0.20;;;;;;;14.03;46.46;94887.25;4964836;28;20097;-46
2021/04/12 10:24:54;;;;;;;0.15;0.15;;;;;;;14.02;46.20;94880.38;4941878;28;20042;-47
2021/04/12 10:27:33;;;;;;;0.22;0.22;;;;;;;14.02;46.61;94880.38;4866749;29;20116;-50
2021/04/12 10:30:11;;;;;;;0.20;0.20;;;;;;;14.02;46.64;94878.53;4874169;29;20485;-47
2021/04/12 10:32:47;;;;;;;0.13;0.13;;;;;;;14.03;46.09;94884.63;4951434;28;20066;-50
2021/04/12 10:35:50;;;;;;;0.70;0.28;;;;;;;14.04;46.34;94880.19;4954050;28;20042;-46
2021/04/12 10:38:30;;;;;;;0.10;0.10;;;;;;;14.02;46.50;94881.19;4994536;28;20049;-49
2021/04/12 10:41:24;;;;;;;0.20;0.20;;;;;;;14.02;46.51;94875.91;4938480;29;20034;-49
2021/04/12 10:44:11;;;;;;;0.32;0.20;;;;;;;14.04;46.59;94885.44;4987067;28;20035;-46
2021/04/12 10:46:58;;;;;;;0.17;0.17;;;;;;;14.03;46.29;94884.63;4956968;28;20030;-46
2021/04/12 10:49:55;;;;;;;0.20;0.20;;;;;;;14.03;46.02;94881.97;4964545;28;20030;-45
2021/04/12 10:52:45;;;;;;;0.20;0.20;;;;;;;14.03;46.56;94876.72;4975085;28;20096;-48
2021/04/12 10:55:35;;;;;;;0.20;0.20;;;;;;;14.04;46.05;94888.09;4986235;28;20041;-46
2021/04/12 10:58:27;;;;;;;0.38;0.28;;;;;;;14.04;46.55;94874.94;4971996;28;20026;-46
2021/04/12 11:01:07;;;;;;;0.20;0.20;;;;;;;14.02;46.49;94875.91;4969881;28;20031;-45
2021/04/12 11:03:57;;;;;;;0.20;0.20;;;;;;;14.06;46.37;94878.19;5006867;28;20045;-56
2021/04/12 11:06:45;;;;;;;0.22;0.22;;;;;;;14.07;46.51;94883.25;4997107;28;20021;-48
2021/04/12 11:09:14;;;;;;;0.10;0.10;;;;;;;14.06;46.71;94886.06;5006145;28;20041;-47
2021/04/12 11:11:49;;;;;;;0.35;0.30;;;;;;;14.06;46.43;94886.06;4999694;28;20029;-47
2021/04/12 11:14:30;;;;;;;0.52;0.20;;;;;;;14.05;46.45;94884.44;5000486;28;20087;-45
2021/04/12 11:17:39;;;;;;;0.20;0.20;;;;;;;14.04;46.19;94882.81;4997322;28;20036;-49
2021/04/12 11:20:08;;;;;;;;;;;;;;;14.04;46.67;94880.19;4976542;28;20553;-48
2021/04/12 11:22:58;;;;;;;0.20;0.20;;;;;;;14.05;46.50;94884.44;4987082;28;19910;-46
2021/04/12 11:25:50;;;;;;;0.55;0.40;;;;;;;14.03;46.06;94879.34;4995027;28;20061;-47
2021/04/12 11:28:43;;;;;;;0.75;0.45;;;;;;;14.04;46.05;94882.81;4992492;28;20049;-45
2021/04/12 11:31:26;;;;;;;0.20;0.20;;;;;;;14.04;46.18;94882.81;4950787;28;20035;-44
2021/04/12 11:34:31;;;;;;;0.65;0.55;;;;;;;14.04;46.21;94882.81;4936445;29;20023;-46
2021/04/12 11:37:21;;;;;;;0.20;0.20;;;;;;;14.05;46.16;94889.69;4936136;29;20042;-45
2021/04/12 11:39:56;;;;;;;0.65;0.40;;;;;;;14.04;46.19;94890.72;4951843;28;20483;-49
2021/04/12 11:42:32;;;;;;;0.20;0.20;;;;;;;14.04;46.33;94893.34;4939827;28;20047;-45
2021/04/12 11:45:16;;;;;;;0.30;0.30;;;;;;;14.04;46.60;94894.16;4953741;28;20070;-47
2021/04/12 11:48:23;;;;;;;0.30;0.30;;;;;;;14.04;46.12;94899.41;4920676;29;20050;-48
2021/04/12 11:51:02;;;;;;;0.20;0.20;;;;;;;14.04;46.34;94903.88;4907829;29;20060;-44
2021/04/12 11:53:57;;;;;;;0.40;0.28;;;;;;;14.04;46.09;94906.50;4883003;29;20178;-48
2021/04/12 11:56:41;;;;;;;0.20;0.20;;;;;;;14.04;46.10;94912.56;4886284;29;20029;-46
2021/04/12 11:59:44;;;;;;;0.30;0.20;;;;;;;14.05;46.49;94918.63;4895083;29;20033;-47
2021/04/12 12:02:27;;;;;;;0.20;0.20;;;;;;;14.04;46.16;94923.09;4901311;29;20040;-44
2021/04/12 12:08:10;;;;;;;0.20;0.20;;;;;;;14.04;46.38;94923.09;4931717;28;20046;-45
2021/04/12 12:10:48;;;;;;;0.30;0.30;;;;;;;14.05;46.11;94926.53;4952590;28;20156;-48
2021/04/12 12:13:41;;;;;;;0.30;0.30;;;;;;;14.04;46.07;94919.66;4954590;28;20029;-46
2021/04/12 12:16:33;;;;;;;0.20;0.20;;;;;;;14.05;46.39;94926.53;4952196;28;20042;-47
2021/04/12 12:19:23;;;;;;;1.23;0.50;;;;;;;14.04;46.52;94922.28;4961383;28;20075;-46
2021/04/12 12:22:21;;;;;;;0.22;0.22;;;;;;;14.04;46.53;94925.72;4988831;28;20116;-48
2021/04/12 12:25:36;;;;;;;0.55;0.30;;;;;;;14.05;46.30;94929.16;5026910;28;20034;-47
2021/04/12 12:28:24;;;;;;;0.65;0.30;;;;;;;14.04;46.35;94925.72;5003892;28;20034;-51
2021/04/12 12:30:49;;;;;;;0.25;0.25;;;;;;;14.04;46.34;94935.44;4970982;28;20031;-48
2021/04/12 12:33:49;;;;;;;0.95;0.52;;;;;;;14.05;46.54;94926.53;5000634;28;20187;-50
2021/04/12 12:36:31;;;;;;;0.30;0.30;;;;;;;14.04;46.34;94935.44;4974802;28;20525;-46
2021/04/12 12:39:13;;;;;;;0.30;0.30;;;;;;;14.04;46.11;94932.81;4992520;28;20045;-45
2021/04/12 12:41:46;;;;;;;0.28;0.28;;;;;;;14.05;46.40;94931.78;4976313;28;20022;-46
2021/04/12 12:44:18;;;;;;;0.20;0.20;;;;;;;14.05;46.19;94937.91;4988995;28;20038;-46
2021/04/12 12:46:45;;;;;;;0.20;0.20;;;;;;;14.05;46.05;94937.91;4956634;28;20359;-49
2021/04/12 12:49:32;;;;;;;0.20;0.20;;;;;;;14.04;46.45;94938.88;4988325;28;20057;-45
2021/04/12 12:52:08;;;;;;;0.20;0.20;;;;;;;14.05;46.10;94937.06;4977874;28;20129;-48
2021/04/12 12:54:40;;;;;;;0.20;0.20;;;;;;;14.05;46.19;94931.78;4981871;28;20026;-45
2021/04/12 12:57:17;;;;;;;0.28;0.28;;;;;;;14.04;46.52;94936.25;4960950;28;20034;-45
2021/04/12 12:59:58;;;;;;;0.30;0.30;;;;;;;14.05;46.14;94939.69;4992080;28;20022;-46
2021/04/12 13:02:26;;;;;;;0.30;0.30;;;;;;;14.05;46.21;94942.31;4979110;28;20034;-49
2021/04/12 13:05:01;;;;;;;0.30;0.30;;;;;;;14.04;46.36;94935.44;5017609;28;20041;-48
2021/04/12 13:07:27;;;;;;;0.20;0.20;;;;;;;14.05;46.25;94934.44;5010749;28;20030;-48
2021/04/12 13:09:57;;;;;;;0.20;0.13;;;;;;;14.04;46.60;94941.50;5028815;28;20473;-47
2021/04/12 13:12:28;;;;;;;;;;;;;;;14.05;46.05;94934.44;5012496;28;20025;-45
2021/04/12 13:14:53;;;;;;;0.20;0.20;;;;;;;14.06;46.44;94936.06;5011374;28;20353;-46
2021/04/12 13:17:32;;;;;;;0.15;0.15;;;;;;;14.05;46.12;94937.06;5005312;28;20033;-48
2021/04/12 13:20:02;;;;;;;0.15;0.15;;;;;;;14.05;46.10;94935.25;4991848;28;20109;-44
2021/04/12 13:23:05;;;;;;;0.20;0.20;;;;;;;14.05;46.48;94937.91;5000551;28;20036;-45